Boltshope Park, United Kingdom
Current Conditions -  °F | °C
As of 2:20 PM on Thursday 30 Oct 2014 (Local Time) from EGNT Reporting Station
Scattered Clouds Scattered Clouds  
Wind Chill: 61°   Ceiling: Unl
Heat Index: 61°   Visibility: 6mi
Dew Point: 55°   Wind: 8mph
Humidity: 82%   Direction: 230°SW
Pressure: 29.91"   Gusts: NA
Location:  54.82°N, 2.08°W
Report Text: EGNT 301420Z 23007KT 190V260 9999 SCT021 16/13 Q1013
Loading
Personal Weather Stations






























Interactive Weather Map
Tropical Storm Tracking
New forecast layout! Learn more

10-Day Weather Forecast

Advertisements
Track Severe Weather on mobile